createdAt,value
2019-05-18T00:02:20.226Z,12.50
2019-05-18T00:04:50.694Z,12.40
2019-05-18T00:07:21.454Z,12.40
2019-05-18T00:09:50.304Z,12.40
2019-05-18T00:12:19.100Z,12.30
2019-05-18T00:14:52.692Z,12.30
2019-05-18T00:17:25.212Z,12.30
2019-05-18T00:19:50.784Z,12.30
2019-05-18T00:22:20.168Z,12.30
2019-05-18T00:24:50.609Z,12.30
2019-05-18T00:27:22.288Z,12.30
2019-05-18T00:29:53.909Z,12.20
2019-05-18T00:32:24.082Z,12.20
2019-05-18T00:34:53.773Z,12.20
2019-05-18T00:37:24.178Z,12.10
2019-05-18T00:39:53.182Z,12.10
2019-05-18T00:42:23.853Z,12.10
2019-05-18T00:44:52.691Z,12.10
2019-05-18T00:47:40.236Z,12.10
2019-05-18T00:50:00.261Z,12.10
2019-05-18T00:52:29.666Z,12.00
2019-05-18T00:54:58.331Z,12.00
2019-05-18T00:57:28.811Z,11.90
2019-05-18T00:59:57.853Z,11.90
2019-05-18T01:02:26.571Z,11.70
2019-05-18T01:04:55.340Z,11.70
2019-05-18T01:07:24.638Z,11.80
2019-05-18T01:09:54.962Z,11.90
2019-05-18T01:12:24.548Z,11.90
2019-05-18T01:14:53.094Z,11.80
2019-05-18T01:17:23.322Z,11.70
2019-05-18T01:19:52.028Z,11.70
2019-05-18T01:22:22.307Z,11.70
2019-05-18T01:24:52.408Z,11.80
2019-05-18T01:27:24.781Z,11.70
2019-05-18T01:29:53.434Z,11.70
2019-05-18T01:32:22.823Z,11.70
2019-05-18T01:34:51.758Z,11.70
2019-05-18T01:37:26.163Z,11.60
2019-05-18T01:39:56.814Z,11.50
2019-05-18T01:42:26.232Z,11.50
2019-05-18T01:44:54.985Z,11.50
2019-05-18T01:47:25.330Z,11.60
2019-05-18T01:49:56.748Z,11.70
2019-05-18T01:52:25.583Z,11.70
2019-05-18T01:54:55.520Z,11.80
2019-05-18T01:57:27.532Z,11.80
2019-05-18T01:59:56.333Z,11.70
2019-05-18T02:02:25.267Z,11.60
2019-05-18T02:04:55.526Z,11.60
2019-05-18T02:07:25.731Z,11.70
2019-05-18T02:09:55.635Z,11.70
2019-05-18T02:12:26.711Z,11.70
2019-05-18T02:14:57.647Z,11.60
2019-05-18T02:17:28.621Z,11.60
2019-05-18T02:20:00.573Z,11.70
2019-05-18T02:22:29.355Z,11.80
2019-05-18T02:24:59.507Z,11.80
2019-05-18T02:27:28.216Z,11.80
2019-05-18T02:29:56.872Z,11.80
2019-05-18T02:32:25.594Z,11.80
2019-05-18T02:34:54.297Z,11.70
2019-05-18T02:37:24.581Z,11.80
2019-05-18T02:39:55.770Z,11.70
2019-05-18T02:42:29.882Z,11.70
2019-05-18T02:44:56.826Z,11.80
2019-05-18T02:47:26.265Z,11.80
2019-05-18T02:49:55.643Z,11.80
2019-05-18T02:52:25.879Z,11.90
2019-05-18T02:54:54.652Z,11.90
2019-05-18T02:57:29.320Z,12.00
2019-05-18T03:00:00.164Z,12.10
2019-05-18T03:02:28.842Z,12.30
2019-05-18T03:04:57.455Z,12.40
2019-05-18T03:07:26.723Z,12.50
2019-05-18T03:09:57.778Z,12.50
2019-05-18T03:12:28.944Z,12.40
2019-05-18T03:14:57.710Z,12.60
2019-05-18T03:17:26.730Z,12.70
2019-05-18T03:19:55.517Z,12.80
2019-05-18T03:22:42.052Z,12.80
2019-05-18T03:25:11.121Z,12.90
2019-05-18T03:27:39.865Z,12.90
2019-05-18T03:30:10.641Z,13.00
2019-05-18T03:32:46.886Z,13.00
2019-05-18T03:35:15.708Z,13.00
2019-05-18T03:37:44.383Z,13.00
2019-05-18T03:40:13.498Z,13.00
2019-05-18T03:42:44.024Z,13.10
2019-05-18T03:45:12.856Z,13.10
2019-05-18T03:47:42.580Z,13.20
2019-05-18T03:50:12.341Z,13.40
2019-05-18T03:52:40.939Z,13.50
2019-05-18T03:55:09.746Z,13.60
2019-05-18T03:57:38.409Z,13.70
2019-05-18T04:00:09.487Z,13.80
2019-05-18T04:02:39.638Z,13.90
2019-05-18T04:05:09.410Z,14.00
2019-05-18T04:07:42.015Z,14.00
2019-05-18T04:10:11.835Z,14.10
2019-05-18T04:12:40.617Z,14.10
2019-05-18T04:15:10.224Z,14.20
2019-05-18T04:17:39.027Z,14.20
2019-05-18T04:20:07.820Z,14.20
2019-05-18T04:22:40.662Z,14.20
2019-05-18T04:25:14.254Z,14.20
2019-05-18T04:27:42.932Z,14.20
2019-05-18T04:30:11.823Z,14.30
2019-05-18T04:32:40.508Z,14.30
2019-05-18T04:35:10.538Z,14.50
2019-05-18T04:37:41.431Z,14.60
2019-05-18T04:40:11.529Z,14.70
2019-05-18T04:42:40.938Z,14.70
2019-05-18T04:45:10.015Z,14.80
2019-05-18T04:47:38.933Z,14.90
2019-05-18T04:50:08.017Z,14.90
2019-05-18T04:52:38.292Z,14.90
2019-05-18T04:55:08.018Z,15.00
2019-05-18T04:57:38.434Z,15.00
2019-05-18T05:00:08.733Z,15.10
2019-05-18T05:02:41.001Z,14.90
2019-05-18T05:05:14.332Z,14.60
2019-05-18T05:07:45.927Z,14.40
2019-05-18T05:10:14.660Z,14.30
2019-05-18T05:12:44.058Z,14.30
2019-05-18T05:15:13.437Z,14.20
2019-05-18T05:17:43.207Z,14.20
2019-05-18T05:20:19.740Z,14.20
2019-05-18T05:22:45.546Z,14.20
2019-05-18T05:25:16.832Z,14.20
2019-05-18T05:27:45.541Z,14.30
2019-05-18T05:30:14.710Z,14.30
2019-05-18T05:32:43.481Z,14.40
2019-05-18T05:35:12.266Z,14.40
2019-05-18T05:37:41.129Z,14.50
2019-05-18T05:40:09.898Z,14.50
2019-05-18T05:42:38.641Z,14.50
2019-05-18T05:45:08.761Z,14.60
2019-05-18T05:47:38.607Z,14.60
2019-05-18T05:50:09.596Z,14.70
2019-05-18T05:52:39.923Z,14.60
2019-05-18T05:55:11.344Z,14.60
2019-05-18T05:57:42.681Z,14.70
2019-05-18T06:00:13.356Z,14.70
2019-05-18T06:02:44.958Z,14.70
2019-05-18T06:05:13.834Z,14.70
2019-05-18T06:07:45.377Z,14.60
2019-05-18T06:10:17.082Z,14.70
2019-05-18T06:12:45.782Z,14.60
2019-05-18T06:15:15.675Z,14.70
2019-05-18T06:17:45.927Z,14.60
2019-05-18T06:20:16.611Z,14.60
2019-05-18T06:22:45.803Z,14.60
2019-05-18T06:25:17.787Z,14.60
2019-05-18T06:27:47.644Z,14.60
2019-05-18T06:30:16.557Z,14.60
2019-05-18T06:32:47.913Z,14.60
2019-05-18T06:35:17.429Z,14.60
2019-05-18T06:37:46.401Z,14.60
2019-05-18T06:40:15.668Z,14.60
2019-05-18T06:42:50.837Z,14.60
2019-05-18T06:45:15.747Z,14.60
2019-05-18T06:47:48.369Z,14.60
2019-05-18T06:50:18.183Z,14.60
2019-05-18T06:52:48.435Z,14.60
2019-05-18T06:55:17.116Z,14.70
2019-05-18T06:57:45.955Z,14.80
2019-05-18T07:00:17.877Z,14.90
2019-05-18T07:02:46.763Z,15.00
2019-05-18T07:05:18.060Z,15.20
2019-05-18T07:07:47.000Z,15.20
2019-05-18T07:10:16.205Z,15.40
2019-05-18T07:12:45.031Z,15.60
2019-05-18T07:15:15.739Z,15.60
2019-05-18T07:17:44.390Z,15.70
2019-05-18T07:20:14.344Z,15.90
2019-05-18T07:22:43.544Z,16.00
2019-05-18T07:25:16.278Z,16.00
2019-05-18T07:27:47.145Z,15.90
2019-05-18T07:30:16.820Z,15.80
2019-05-18T07:32:45.979Z,15.70
2019-05-18T07:35:15.560Z,15.70
2019-05-18T07:37:45.880Z,15.60
2019-05-18T07:40:16.099Z,15.60
2019-05-18T07:42:46.187Z,15.50
2019-05-18T07:45:15.758Z,15.50
2019-05-18T07:47:47.941Z,15.40
2019-05-18T07:50:21.196Z,15.40
2019-05-18T07:52:49.969Z,15.40
2019-05-18T07:55:24.835Z,15.40
2019-05-18T07:57:57.191Z,15.40
2019-05-18T08:00:28.114Z,15.40
2019-05-18T08:02:59.254Z,15.30
2019-05-18T08:05:28.459Z,15.30
2019-05-18T08:07:57.151Z,15.20
2019-05-18T08:10:36.901Z,15.20
2019-05-18T08:13:07.225Z,15.10
2019-05-18T08:15:36.607Z,15.10
2019-05-18T08:18:05.580Z,15.10
2019-05-18T08:20:35.922Z,15.10
2019-05-18T08:23:05.176Z,15.10
2019-05-18T08:25:34.032Z,15.10
2019-05-18T08:28:02.975Z,15.20
2019-05-18T08:30:33.672Z,15.20
2019-05-18T08:33:02.534Z,15.20
2019-05-18T08:35:31.272Z,15.30
2019-05-18T08:38:03.468Z,15.30
2019-05-18T08:40:33.400Z,15.40
2019-05-18T08:43:02.241Z,15.50
2019-05-18T08:45:31.604Z,15.60
2019-05-18T08:48:00.351Z,15.70
2019-05-18T08:50:29.012Z,15.90
2019-05-18T08:52:58.055Z,16.00
2019-05-18T08:55:27.448Z,16.30
2019-05-18T08:57:56.180Z,16.50
2019-05-18T09:00:26.147Z,16.80
2019-05-18T09:02:54.907Z,16.90
2019-05-18T09:05:24.275Z,17.10
2019-05-18T09:07:54.612Z,17.10
2019-05-18T09:10:25.300Z,17.20
2019-05-18T09:12:54.294Z,17.20
2019-05-18T09:15:26.991Z,17.30
2019-05-18T09:18:06.534Z,17.50
2019-05-18T09:20:37.206Z,17.70
2019-05-18T09:23:05.981Z,17.90
2019-05-18T09:25:34.992Z,18.10
2019-05-18T09:28:03.783Z,18.30
2019-05-18T09:30:32.509Z,18.50
2019-05-18T09:33:01.301Z,18.70
2019-05-18T09:35:30.088Z,19.00
2019-05-18T09:37:58.800Z,19.30
2019-05-18T09:40:30.747Z,19.60
2019-05-18T09:42:59.713Z,19.80
2019-05-18T09:45:29.769Z,20.40
2019-05-18T09:47:59.949Z,21.00
2019-05-18T09:50:29.969Z,21.20
2019-05-18T09:52:59.459Z,21.40
2019-05-18T09:55:28.165Z,21.40
2019-05-18T09:57:56.908Z,21.70
2019-05-18T10:00:27.562Z,22.00
2019-05-18T10:02:57.502Z,22.20
2019-05-18T10:05:26.853Z,22.60
2019-05-18T10:07:57.884Z,22.80
2019-05-18T10:10:33.770Z,22.90
2019-05-18T10:13:08.170Z,22.80
2019-05-18T10:15:37.069Z,22.80
2019-05-18T10:18:07.374Z,22.70
2019-05-18T10:20:38.930Z,22.80
2019-05-18T10:23:13.081Z,22.60
2019-05-18T10:25:38.874Z,22.30
2019-05-18T10:28:08.486Z,22.00
2019-05-18T10:30:37.335Z,21.90
2019-05-18T10:33:08.363Z,21.70
2019-05-18T10:35:41.924Z,21.60
2019-05-18T10:38:11.208Z,21.50
2019-05-18T10:40:39.975Z,21.50
2019-05-18T10:43:11.545Z,21.50
2019-05-18T10:45:44.745Z,21.40
2019-05-18T10:48:13.479Z,21.50
2019-05-18T10:50:43.747Z,21.50
2019-05-18T10:53:27.935Z,21.50
2019-05-18T10:55:47.481Z,21.50
2019-05-18T10:58:16.316Z,21.50
2019-05-18T11:00:46.213Z,21.50
2019-05-18T11:03:19.484Z,21.50
2019-05-18T11:05:49.783Z,21.60
2019-05-18T11:08:27.219Z,21.90
2019-05-18T11:11:00.674Z,22.10
2019-05-18T11:13:29.445Z,22.20
2019-05-18T11:16:00.801Z,22.30
2019-05-18T11:18:30.598Z,22.40
2019-05-18T11:20:59.496Z,22.40
2019-05-18T11:23:41.465Z,22.70
2019-05-18T11:25:58.983Z,23.10
2019-05-18T11:28:28.500Z,23.50
2019-05-18T11:30:58.724Z,23.50
2019-05-18T11:33:29.854Z,23.60
2019-05-18T11:36:01.231Z,23.90
2019-05-18T11:38:32.904Z,23.70
2019-05-18T11:41:03.811Z,23.60
2019-05-18T11:43:38.025Z,23.50
2019-05-18T11:46:09.178Z,23.20
2019-05-18T11:48:41.110Z,23.30
2019-05-18T11:51:18.237Z,23.40
2019-05-18T11:53:57.868Z,23.50
2019-05-18T11:56:19.411Z,23.50
2019-05-18T11:58:50.964Z,23.30
2019-05-18T12:01:21.286Z,23.30
2019-05-18T12:03:51.670Z,23.50
2019-05-18T12:06:24.139Z,23.50
2019-05-18T12:08:59.030Z,23.30
2019-05-18T12:11:30.974Z,23.20
2019-05-18T12:14:08.058Z,23.20
2019-05-18T12:16:38.603Z,23.30
2019-05-18T12:19:11.528Z,23.50
2019-05-18T12:21:48.704Z,23.50
2019-05-18T12:24:17.231Z,23.50
2019-05-18T12:26:50.185Z,23.50
2019-05-18T12:29:24.238Z,23.70
2019-05-18T12:31:53.562Z,23.90
2019-05-18T12:34:31.403Z,23.80
2019-05-18T12:37:00.527Z,23.60
2019-05-18T12:39:32.496Z,23.50
2019-05-18T12:42:07.482Z,23.40
2019-05-18T12:44:39.075Z,23.40
2019-05-18T12:47:08.448Z,23.70
2019-05-18T12:49:39.031Z,23.70
2019-05-18T12:52:10.859Z,23.90
2019-05-18T12:54:46.533Z,24.00
2019-05-18T12:57:12.649Z,23.90
2019-05-18T12:59:42.600Z,24.20
2019-05-18T13:02:14.628Z,24.40
2019-05-18T13:04:43.545Z,24.70
2019-05-18T13:07:13.777Z,24.90
2019-05-18T13:09:42.607Z,25.10
2019-05-18T13:12:12.511Z,25.10
2019-05-18T13:14:43.607Z,25.20
2019-05-18T13:17:14.616Z,25.40
2019-05-18T13:19:44.733Z,25.60
2019-05-18T13:22:16.339Z,25.70
2019-05-18T13:24:52.279Z,25.70
2019-05-18T13:27:21.212Z,25.70
2019-05-18T13:29:51.265Z,25.70
2019-05-18T13:32:24.902Z,25.40
2019-05-18T13:34:55.727Z,25.10
2019-05-18T13:37:26.376Z,24.90
2019-05-18T13:39:57.040Z,24.70
2019-05-18T13:42:26.783Z,24.70
2019-05-18T13:44:57.021Z,24.60
2019-05-18T13:47:30.747Z,24.70
2019-05-18T13:49:59.484Z,24.60
2019-05-18T13:52:30.246Z,24.40
2019-05-18T13:55:03.848Z,24.40
2019-05-18T13:57:36.294Z,24.50
2019-05-18T14:00:33.629Z,24.50
2019-05-18T14:02:44.308Z,24.50
2019-05-18T14:05:16.722Z,24.70
2019-05-18T14:07:47.909Z,24.60
2019-05-18T14:10:23.040Z,24.60
2019-05-18T14:12:53.487Z,24.70
2019-05-18T14:15:25.810Z,24.60
2019-05-18T14:17:55.125Z,24.60
2019-05-18T14:20:26.545Z,24.50
2019-05-18T14:22:59.662Z,24.60
2019-05-18T14:25:29.661Z,24.60
2019-05-18T14:28:00.219Z,24.70
2019-05-18T14:30:29.361Z,24.70
2019-05-18T14:32:59.601Z,24.60
2019-05-18T14:35:33.508Z,24.60
2019-05-18T14:38:09.464Z,24.70
2019-05-18T14:40:38.784Z,24.90
2019-05-18T14:43:09.826Z,25.00
2019-05-18T14:45:38.896Z,24.80
2019-05-18T14:48:09.162Z,24.70
2019-05-18T14:50:39.244Z,24.50
2019-05-18T14:53:08.650Z,24.20
2019-05-18T14:55:43.705Z,24.10
2019-05-18T14:58:12.670Z,24.00
2019-05-18T15:00:42.184Z,24.00
2019-05-18T15:03:12.824Z,24.00
2019-05-18T15:05:43.615Z,24.20
2019-05-18T15:08:14.912Z,24.40
2019-05-18T15:10:43.796Z,24.80
2019-05-18T15:13:14.403Z,24.90
2019-05-18T15:15:46.859Z,24.90
2019-05-18T15:18:17.142Z,24.90
2019-05-18T15:20:49.369Z,24.90
2019-05-18T15:23:18.693Z,24.90
2019-05-18T15:25:50.510Z,25.00
2019-05-18T15:28:18.736Z,25.10
2019-05-18T15:30:51.221Z,25.10
2019-05-18T15:33:20.012Z,25.30
2019-05-18T15:35:50.216Z,25.30
2019-05-18T15:38:20.457Z,25.10
2019-05-18T15:40:49.493Z,25.00
2019-05-18T15:43:24.241Z,24.80
2019-05-18T15:45:53.262Z,24.60
2019-05-18T15:48:25.471Z,24.50
2019-05-18T15:50:54.300Z,24.40
2019-05-18T15:53:23.075Z,24.30
2019-05-18T15:56:05.468Z,24.20
2019-05-18T15:58:26.568Z,24.00
2019-05-18T16:00:56.767Z,23.70
2019-05-18T16:03:29.042Z,23.40
2019-05-18T16:06:00.840Z,23.10
2019-05-18T16:08:32.168Z,22.70
2019-05-18T16:11:01.524Z,22.60
2019-05-18T16:13:31.226Z,22.50
2019-05-18T16:16:13.607Z,22.50
2019-05-18T16:18:45.670Z,22.50
2019-05-18T16:21:16.766Z,22.50
2019-05-18T16:23:47.344Z,22.60
2019-05-18T16:26:21.834Z,22.50
2019-05-18T16:28:50.784Z,22.40
2019-05-18T16:31:21.068Z,22.40
2019-05-18T16:33:52.842Z,22.30
2019-05-18T16:36:22.950Z,22.30
2019-05-18T16:39:05.105Z,22.10
2019-05-18T16:41:36.695Z,21.90
2019-05-18T16:44:13.582Z,21.70
2019-05-18T16:46:46.057Z,21.50
2019-05-18T16:49:17.304Z,21.40
2019-05-18T16:51:48.298Z,21.20
2019-05-18T16:54:24.702Z,21.00
2019-05-18T16:56:55.333Z,20.90
2019-05-18T16:59:27.324Z,20.80
2019-05-18T17:01:56.542Z,20.70
2019-05-18T17:04:28.083Z,20.60
2019-05-18T17:06:57.418Z,20.50
2019-05-18T17:09:27.886Z,20.50
2019-05-18T17:12:01.071Z,20.40
2019-05-18T17:14:29.962Z,20.30
2019-05-18T17:16:59.542Z,20.30
2019-05-18T17:19:28.338Z,20.30
2019-05-18T17:21:57.488Z,20.20
2019-05-18T17:24:27.833Z,20.20
2019-05-18T17:27:02.050Z,20.20
2019-05-18T17:29:36.031Z,20.10
2019-05-18T17:32:06.832Z,20.00
2019-05-18T17:34:41.588Z,20.00
2019-05-18T17:37:17.875Z,19.90
2019-05-18T17:39:48.987Z,19.80
2019-05-18T17:42:19.971Z,19.80
2019-05-18T17:44:51.883Z,19.70
2019-05-18T17:47:30.654Z,19.70
2019-05-18T17:50:01.452Z,19.60
2019-05-18T17:52:31.539Z,19.60
2019-05-18T17:55:05.234Z,19.60
2019-05-18T17:57:48.797Z,19.60
2019-05-18T18:00:29.656Z,19.50
2019-05-18T18:05:36.715Z,19.40
2019-05-18T18:08:10.409Z,19.30
2019-05-18T18:10:39.967Z,19.30
2019-05-18T18:13:12.052Z,19.20
2019-05-18T18:15:45.059Z,19.20
2019-05-18T18:18:20.727Z,19.10
2019-05-18T18:20:53.425Z,19.10
2019-05-18T18:23:26.399Z,19.00
2019-05-18T18:25:59.017Z,18.80
2019-05-18T18:31:23.821Z,18.70
2019-05-18T18:33:57.464Z,18.60
2019-05-18T18:36:29.118Z,18.60
2019-05-18T18:39:05.182Z,18.50
2019-05-18T18:41:45.743Z,18.50
2019-05-18T18:44:15.030Z,18.50
2019-05-18T18:46:50.968Z,18.40
2019-05-18T18:49:38.246Z,18.40
2019-05-18T18:52:12.795Z,18.40
2019-05-18T18:54:48.525Z,18.30
2019-05-18T18:57:21.453Z,18.20
2019-05-18T18:59:56.409Z,18.20
2019-05-18T19:02:28.726Z,18.20
2019-05-18T19:05:03.445Z,18.10
2019-05-18T19:07:54.787Z,18.10
2019-05-18T19:10:23.930Z,18.00
2019-05-18T19:12:52.770Z,18.00
2019-05-18T19:15:27.232Z,17.90
2019-05-18T19:18:02.289Z,17.90
2019-05-18T19:20:34.062Z,17.90
2019-05-18T19:23:08.283Z,17.80
2019-05-18T19:25:47.276Z,17.80
2019-05-18T19:28:17.784Z,17.70
2019-05-18T19:30:57.756Z,17.80
2019-05-18T19:33:27.001Z,17.70
2019-05-18T19:36:14.293Z,17.70
2019-05-18T19:38:51.023Z,17.70
2019-05-18T19:41:29.680Z,17.50
2019-05-18T19:44:05.457Z,17.40
2019-05-18T19:46:38.342Z,17.40
2019-05-18T19:49:13.259Z,17.30
2019-05-18T19:51:54.677Z,17.30
2019-05-18T19:54:30.519Z,17.20
2019-05-18T19:57:04.957Z,17.10
2019-05-18T19:59:39.434Z,17.10
2019-05-18T20:02:18.359Z,17.10
2019-05-18T20:07:41.590Z,16.90
2019-05-18T20:10:28.111Z,16.70
2019-05-18T20:13:04.024Z,16.60
2019-05-18T20:15:42.235Z,16.50
2019-05-18T20:18:12.740Z,16.50
2019-05-18T20:20:46.852Z,16.40
2019-05-18T20:23:22.204Z,16.40
2019-05-18T20:25:52.892Z,16.30
2019-05-18T20:28:24.183Z,16.30
2019-05-18T20:30:59.425Z,16.30
2019-05-18T20:33:34.849Z,16.40
2019-05-18T20:36:05.000Z,16.40
2019-05-18T20:38:33.992Z,16.40
2019-05-18T20:41:07.066Z,16.50
2019-05-18T20:43:37.028Z,16.70
2019-05-18T20:46:13.971Z,16.80
2019-05-18T20:48:47.298Z,16.90
2019-05-18T20:51:19.815Z,16.90
2019-05-18T20:53:55.460Z,16.90
2019-05-18T20:56:26.096Z,16.90
2019-05-18T20:58:59.854Z,16.90
2019-05-18T21:01:30.484Z,16.90
2019-05-18T21:04:03.376Z,16.90
2019-05-18T21:06:38.504Z,16.80
2019-05-18T21:09:25.698Z,16.80
2019-05-18T21:12:04.433Z,16.80
2019-05-18T21:14:31.293Z,16.80
2019-05-18T21:17:01.763Z,16.80
2019-05-18T21:19:37.136Z,16.80
2019-05-18T21:22:06.485Z,16.80
2019-05-18T21:27:26.038Z,16.70
2019-05-18T21:29:56.306Z,16.80
2019-05-18T21:32:26.516Z,16.70
2019-05-18T21:34:56.646Z,16.80
2019-05-18T21:37:29.304Z,16.80
2019-05-18T21:40:02.885Z,16.80
2019-05-18T21:42:36.379Z,16.80
2019-05-18T21:45:08.959Z,16.70
2019-05-18T21:47:39.157Z,16.70
2019-05-18T21:50:11.293Z,16.60
2019-05-18T21:52:48.050Z,16.60
2019-05-18T21:55:18.696Z,16.60
2019-05-18T21:57:51.274Z,16.50
2019-05-18T22:00:22.572Z,16.50
2019-05-18T22:02:54.524Z,16.50
2019-05-18T22:05:24.787Z,16.50
2019-05-18T22:07:55.325Z,16.50
2019-05-18T22:10:30.382Z,16.60
2019-05-18T22:13:06.188Z,16.70
2019-05-18T22:15:43.342Z,16.70
2019-05-18T22:18:24.032Z,16.70
2019-05-18T22:20:46.723Z,16.80
2019-05-18T22:23:22.594Z,16.80
2019-05-18T22:25:57.143Z,16.80
2019-05-18T22:28:27.580Z,16.80
2019-05-18T22:30:58.396Z,16.80
2019-05-18T22:33:29.737Z,16.80
2019-05-18T22:36:01.606Z,16.80
2019-05-18T22:38:35.723Z,16.70
2019-05-18T22:41:11.478Z,16.70
2019-05-18T22:43:48.869Z,16.70
2019-05-18T22:46:23.087Z,16.70
2019-05-18T22:48:59.599Z,16.60
2019-05-18T22:51:32.391Z,16.70
2019-05-18T22:54:12.167Z,16.60
2019-05-18T22:56:44.260Z,16.60
2019-05-18T22:59:17.033Z,16.50
2019-05-18T23:01:52.306Z,16.50
2019-05-18T23:04:36.826Z,16.50
2019-05-18T23:07:08.396Z,16.40
2019-05-18T23:09:43.642Z,16.40
2019-05-18T23:12:15.295Z,16.40
2019-05-18T23:14:45.508Z,16.40
2019-05-18T23:17:18.356Z,16.40
2019-05-18T23:19:48.020Z,16.30
2019-05-18T23:22:20.108Z,16.30
2019-05-18T23:24:51.984Z,16.20
2019-05-18T23:27:27.629Z,16.20
2019-05-18T23:30:00.438Z,16.10
2019-05-18T23:32:33.812Z,16.10
2019-05-18T23:35:11.104Z,16.10
2019-05-18T23:37:46.666Z,16.10
2019-05-18T23:40:29.232Z,16.00
2019-05-18T23:43:07.207Z,16.00
2019-05-18T23:45:46.935Z,16.00
2019-05-18T23:48:18.796Z,16.00
2019-05-18T23:50:52.797Z,16.00
2019-05-18T23:53:26.456Z,16.00
2019-05-18T23:56:03.139Z,16.00
2019-05-18T23:58:42.746Z,16.00
